createdAt,value
2022-09-01T00:00:23.688Z,19.50
2022-09-01T00:05:27.089Z,19.20
2022-09-01T00:10:30.780Z,18.90
2022-09-01T00:15:36.098Z,18.60
2022-09-01T00:20:39.763Z,18.40
2022-09-01T00:25:43.230Z,18.10
2022-09-01T00:30:46.258Z,17.90
2022-09-01T00:35:49.231Z,17.70
2022-09-01T00:40:52.472Z,17.60
2022-09-01T00:45:57.961Z,17.50
2022-09-01T00:51:04.170Z,17.40
2022-09-01T00:56:09.521Z,17.30
2022-09-01T01:01:14.772Z,17.20
2022-09-01T01:06:19.448Z,17.00
2022-09-01T01:11:22.579Z,16.90
2022-09-01T01:16:28.536Z,16.80
2022-09-01T01:22:02.729Z,16.70
2022-09-01T01:27:07.068Z,16.70
2022-09-01T01:32:13.439Z,16.60
2022-09-01T01:37:16.351Z,16.50
2022-09-01T01:42:19.536Z,16.40
2022-09-01T01:47:22.461Z,16.30
2022-09-01T01:52:26.151Z,16.20
2022-09-01T01:57:33.143Z,16.20
2022-09-01T02:02:38.320Z,16.20
2022-09-01T02:07:43.101Z,16.20
2022-09-01T02:12:46.487Z,16.20
2022-09-01T02:17:49.808Z,16.20
2022-09-01T02:22:55.617Z,16.20
2022-09-01T02:28:00.625Z,16.20
2022-09-01T02:33:05.065Z,16.20
2022-09-01T02:38:08.850Z,16.20
2022-09-01T02:43:13.593Z,16.20
2022-09-01T02:48:17.893Z,16.10
2022-09-01T02:53:23.107Z,16.10
2022-09-01T02:58:28.369Z,16.10
2022-09-01T03:03:31.368Z,16.10
2022-09-01T03:08:36.710Z,16.10
2022-09-01T03:13:41.464Z,16.00
2022-09-01T03:18:44.810Z,16.00
2022-09-01T03:23:50.465Z,16.00
2022-09-01T03:28:54.020Z,16.00
2022-09-01T03:33:57.184Z,15.90
2022-09-01T03:39:01.311Z,15.90
2022-09-01T03:44:04.407Z,15.90
2022-09-01T03:49:08.210Z,15.80
2022-09-01T03:54:11.272Z,15.70
2022-09-01T03:59:17.372Z,15.60
2022-09-01T04:04:20.465Z,15.60
2022-09-01T04:09:23.402Z,15.50
2022-09-01T04:14:27.698Z,15.40
2022-09-01T04:19:39.655Z,15.30
2022-09-01T04:24:46.615Z,15.30
2022-09-01T04:29:50.247Z,15.30
2022-09-01T04:34:53.121Z,15.30
2022-09-01T04:39:57.677Z,15.40
2022-09-01T04:45:02.060Z,15.30
2022-09-01T04:50:15.064Z,15.30
2022-09-01T04:55:18.309Z,15.30
2022-09-01T05:00:23.680Z,15.20
2022-09-01T05:05:27.534Z,15.20
2022-09-01T05:10:31.689Z,15.20
2022-09-01T05:15:35.641Z,15.20
2022-09-01T05:20:42.120Z,15.20
2022-09-01T05:25:46.958Z,15.20
2022-09-01T05:30:54.135Z,15.30
2022-09-01T05:36:02.314Z,15.30
2022-09-01T05:41:09.017Z,15.30
2022-09-01T05:46:13.657Z,15.30
2022-09-01T05:51:43.216Z,15.30
2022-09-01T05:56:46.195Z,15.20
2022-09-01T06:01:50.529Z,15.20
2022-09-01T06:07:06.622Z,15.20
2022-09-01T06:12:18.184Z,15.20
2022-09-01T06:17:25.534Z,15.30
2022-09-01T06:22:29.443Z,15.40
2022-09-01T06:27:34.564Z,15.50
2022-09-01T06:32:38.642Z,15.50
2022-09-01T06:37:46.156Z,15.50
2022-09-01T06:42:51.655Z,15.60
2022-09-01T06:47:57.764Z,15.50
2022-09-01T06:58:35.009Z,15.50
2022-09-01T07:03:39.553Z,15.60
2022-09-01T07:14:16.319Z,15.70
2022-09-01T07:19:19.394Z,15.70
2022-09-01T07:24:26.637Z,15.80
2022-09-01T07:29:35.469Z,15.80
2022-09-01T07:34:39.890Z,15.80
2022-09-01T07:39:48.606Z,15.90
2022-09-01T07:44:53.251Z,15.90
2022-09-01T07:50:25.009Z,15.90
2022-09-01T07:55:19.416Z,16.00
2022-09-01T08:00:22.484Z,16.10
2022-09-01T08:05:27.165Z,16.30
2022-09-01T08:10:30.286Z,16.50
2022-09-01T08:16:06.430Z,16.70
2022-09-01T08:20:56.342Z,16.80
2022-09-01T08:25:59.205Z,17.00
2022-09-01T08:31:18.132Z,17.10
2022-09-01T08:36:24.806Z,17.20
2022-09-01T08:41:50.589Z,17.30
2022-09-01T08:47:08.755Z,17.40
2022-09-01T08:52:30.951Z,17.60
2022-09-01T08:57:36.884Z,17.80
2022-09-01T09:03:18.597Z,18.00
2022-09-01T09:09:03.907Z,18.10
2022-09-01T09:14:31.547Z,18.30
2022-09-01T09:19:42.708Z,18.40
2022-09-01T09:24:56.355Z,18.40
2022-09-01T09:30:08.024Z,18.40
2022-09-01T09:35:33.212Z,18.40
2022-09-01T09:40:53.193Z,18.40
2022-09-01T09:46:38.775Z,18.40
2022-09-01T09:51:45.622Z,18.60
2022-09-01T09:57:03.439Z,18.80
2022-09-01T10:02:42.357Z,19.00
2022-09-01T10:07:45.622Z,19.10
2022-09-01T10:12:48.492Z,19.20
2022-09-01T10:18:14.047Z,19.30
2022-09-01T10:23:18.919Z,19.60
2022-09-01T10:28:24.596Z,19.90
2022-09-01T10:33:28.749Z,20.10
2022-09-01T10:38:32.149Z,20.30
2022-09-01T10:43:44.316Z,20.50
2022-09-01T10:49:02.738Z,20.70
2022-09-01T10:54:07.408Z,21.00
2022-09-01T10:59:33.418Z,21.10
2022-09-01T11:04:40.045Z,21.30
2022-09-01T11:10:11.013Z,21.60
2022-09-01T11:15:14.540Z,21.90
2022-09-01T11:20:38.788Z,22.40
2022-09-01T11:26:18.673Z,22.80
2022-09-01T11:31:35.540Z,23.00
2022-09-01T11:36:47.307Z,23.10
2022-09-01T11:42:19.008Z,23.20
2022-09-01T11:47:26.786Z,23.40
2022-09-01T11:52:38.397Z,23.40
2022-09-01T11:57:41.685Z,23.50
2022-09-01T12:02:51.612Z,23.70
2022-09-01T12:07:55.889Z,23.90
2022-09-01T12:13:04.636Z,24.00
2022-09-01T12:18:24.611Z,24.10
2022-09-01T12:23:43.251Z,24.30
2022-09-01T12:28:49.718Z,24.40
2022-09-01T12:33:56.230Z,24.70
2022-09-01T12:39:17.990Z,24.80
2022-09-01T12:44:37.259Z,24.80
2022-09-01T12:49:50.143Z,24.60
2022-09-01T12:55:00.163Z,24.40
2022-09-01T13:00:32.699Z,24.20
2022-09-01T13:05:42.333Z,24.20
2022-09-01T13:11:11.253Z,24.30
2022-09-01T13:16:15.567Z,24.30
2022-09-01T13:21:18.512Z,24.20
2022-09-01T13:26:21.604Z,24.00
2022-09-01T13:31:32.203Z,24.00
2022-09-01T13:36:45.445Z,23.90
2022-09-01T13:41:51.488Z,23.80
2022-09-01T13:52:18.714Z,23.70
2022-09-01T13:57:22.268Z,23.80
2022-09-01T14:02:26.495Z,23.80
2022-09-01T14:07:30.132Z,23.90
2022-09-01T14:12:33.086Z,23.90
2022-09-01T14:17:38.399Z,23.90
2022-09-01T14:22:41.975Z,23.90
2022-09-01T14:27:45.717Z,23.90
2022-09-01T14:32:52.573Z,23.70
2022-09-01T14:37:56.429Z,23.60
2022-09-01T14:42:59.655Z,23.60
2022-09-01T14:48:02.785Z,23.60
2022-09-01T14:53:05.938Z,23.60
2022-09-01T14:58:08.912Z,23.60
2022-09-01T15:03:11.910Z,23.50
2022-09-01T15:08:17.755Z,23.60
2022-09-01T15:13:21.002Z,23.70
2022-09-01T15:18:23.970Z,23.80
2022-09-01T15:23:27.158Z,23.80
2022-09-01T15:28:30.195Z,23.80
2022-09-01T15:33:33.060Z,23.60
2022-09-01T15:38:36.502Z,23.40
2022-09-01T15:43:40.098Z,23.30
2022-09-01T15:48:45.950Z,23.20
2022-09-01T15:53:55.621Z,23.20
2022-09-01T15:59:01.477Z,23.10
2022-09-01T16:04:08.088Z,23.10
2022-09-01T16:09:12.615Z,22.90
2022-09-01T16:14:16.114Z,22.90
2022-09-01T16:19:45.453Z,22.80
2022-09-01T16:24:54.384Z,22.70
2022-09-01T16:30:04.136Z,22.60
2022-09-01T16:35:07.446Z,22.50
2022-09-01T16:40:57.991Z,22.40
2022-09-01T16:46:36.022Z,22.40
2022-09-01T16:52:07.335Z,22.30
2022-09-01T16:57:46.265Z,22.20
2022-09-01T17:02:52.704Z,21.90
2022-09-01T17:08:21.666Z,21.70
2022-09-01T17:13:38.217Z,21.50
2022-09-01T17:18:51.338Z,21.30
2022-09-01T17:24:22.426Z,21.20
2022-09-01T17:29:46.973Z,21.00
2022-09-01T17:35:04.037Z,20.80
2022-09-01T17:40:24.784Z,20.60
2022-09-01T17:45:47.890Z,20.50
2022-09-01T17:51:20.303Z,20.20
2022-09-01T17:56:53.481Z,20.10
2022-09-01T18:02:10.228Z,19.80
2022-09-01T18:07:52.662Z,19.70
2022-09-01T18:13:10.855Z,19.50
2022-09-01T18:18:37.606Z,19.30
2022-09-01T18:23:44.235Z,19.10
2022-09-01T18:28:50.748Z,18.90
2022-09-01T18:34:37.143Z,18.80
2022-09-01T18:40:08.040Z,18.70
2022-09-01T18:45:45.428Z,18.60
2022-09-01T18:51:38.531Z,18.50
2022-09-01T18:57:01.128Z,18.40
2022-09-01T19:02:19.386Z,18.30
2022-09-01T19:07:43.947Z,18.30
2022-09-01T19:13:01.786Z,18.20
2022-09-01T19:18:39.205Z,18.20
2022-09-01T19:23:59.536Z,18.20
2022-09-01T19:29:13.883Z,18.20
2022-09-01T19:34:26.697Z,18.30
2022-09-01T19:39:41.464Z,18.30
2022-09-01T19:45:12.255Z,18.40
2022-09-01T19:50:36.110Z,18.40
2022-09-01T19:55:55.399Z,18.40
2022-09-01T20:01:03.446Z,18.40
2022-09-01T20:06:35.516Z,18.40
2022-09-01T20:11:54.424Z,18.40
2022-09-01T20:17:03.391Z,18.30
2022-09-01T20:22:42.051Z,18.30
2022-09-01T20:28:03.602Z,18.30
2022-09-01T20:33:38.149Z,18.20
2022-09-01T20:39:33.036Z,18.20
2022-09-01T20:44:59.651Z,18.10
2022-09-01T20:50:10.925Z,18.10
2022-09-01T20:55:25.113Z,18.10
2022-09-01T21:00:30.574Z,18.20
2022-09-01T21:05:39.969Z,18.10
2022-09-01T21:11:13.743Z,18.10
2022-09-01T21:16:43.340Z,18.10
2022-09-01T21:22:15.001Z,18.00
2022-09-01T21:27:26.533Z,17.90
2022-09-01T21:32:33.807Z,17.80
2022-09-01T21:37:36.745Z,17.70
2022-09-01T21:43:06.977Z,17.70
2022-09-01T21:48:10.064Z,17.70
2022-09-01T21:53:14.168Z,17.70
2022-09-01T21:58:17.200Z,17.70
2022-09-01T22:03:20.586Z,17.70
2022-09-01T22:08:23.570Z,17.70
2022-09-01T22:13:27.663Z,17.70
2022-09-01T22:18:30.791Z,17.70
2022-09-01T22:23:34.137Z,17.70
2022-09-01T22:28:37.337Z,17.70
2022-09-01T22:33:40.301Z,17.60
2022-09-01T22:38:43.208Z,17.50
2022-09-01T22:43:46.688Z,17.40
2022-09-01T22:48:50.214Z,17.20
2022-09-01T22:53:54.800Z,17.10
2022-09-01T22:59:04.052Z,17.00
2022-09-01T23:04:09.888Z,16.90
2022-09-01T23:09:14.132Z,16.90
2022-09-01T23:14:18.661Z,16.80
2022-09-01T23:19:23.191Z,16.70
2022-09-01T23:24:26.148Z,16.70
2022-09-01T23:29:29.148Z,16.70
2022-09-01T23:34:33.355Z,16.70
2022-09-01T23:39:36.666Z,16.70
2022-09-01T23:44:40.083Z,16.60
2022-09-01T23:49:43.260Z,16.60
2022-09-01T23:54:46.681Z,16.60
2022-09-01T23:59:49.579Z,16.60
